Time,TemperatureF,DewpointF,PressureIn,WindDirection,WindDirectionDegrees,WindSpeedMPH,WindSpeedGustMPH,Humidity,HourlyPrecipIn,Conditions,Clouds,dailyrainin,SoftwareType,DateUTC
2013-08-04 00:00:00,65.5,57.4,30.20,North,0,0.0,1.0,75,0.00,,---,0.00,VWS V14.01,2013-08-04 05:00:00,
2013-08-04 00:10:00,64.7,57.0,30.20,North,4,0.0,2.0,77,0.00,,,0.00,weatherlink.com 1.10,2013-08-04 05:10:00,
2013-08-04 00:20:00,64.7,57.3,30.20,NNE,22,1.0,2.0,77,0.00,,---,0.00,VWS V14.01,2013-08-04 05:20:00,
2013-08-04 00:25:00,64.6,57.0,30.20,NE,46,0.0,2.0,77,0.00,,,0.00,weatherlink.com 1.10,2013-08-04 05:25:00,
2013-08-04 00:30:00,64.6,57.2,30.20,NNE,22,1.0,3.0,77,0.00,,---,0.00,VWS V14.01,2013-08-04 05:30:00,
2013-08-04 00:40:00,64.8,57.4,30.21,NNE,22,1.0,2.0,77,0.00,,---,0.00,VWS V14.01,2013-08-04 05:40:00,
2013-08-04 00:41:00,64.6,57.0,30.21,NNE,20,1.0,1.0,77,0.00,,,0.00,weatherlink.com 1.10,2013-08-04 05:41:00,
2013-08-04 00:50:00,64.4,57.4,30.20,North,0,1.0,2.0,78,0.00,,---,0.00,VWS V14.01,2013-08-04 05:50:00,
2013-08-04 00:56:00,63.9,57.0,30.20,NNE,22,0.0,2.0,79,0.00,,,0.00,weatherlink.com 1.10,2013-08-04 05:56:00,
2013-08-04 01:00:00,63.9,57.3,30.20,NNE,22,1.0,2.0,79,0.00,,---,0.00,VWS V14.01,2013-08-04 06:00:00,
2013-08-04 01:10:00,63.7,57.4,30.19,NNE,22,1.0,3.0,80,0.00,,---,0.00,VWS V14.01,2013-08-04 06:10:00,
2013-08-04 01:11:00,63.5,57.0,30.19,North,1,0.0,3.0,80,0.00,,,0.00,weatherlink.com 1.10,2013-08-04 06:11:00,
2013-08-04 01:20:00,63.5,57.2,30.19,NNE,22,1.0,3.0,80,0.00,,---,0.00,VWS V14.01,2013-08-04 06:20:00,
2013-08-04 01:26:00,63.8,57.0,30.18,NNE,23,3.0,3.0,79,0.00,,,0.00,weatherlink.com 1.10,2013-08-04 06:26:00,
2013-08-04 01:30:00,63.8,57.2,30.18,NNE,22,2.0,4.0,79,0.00,,---,0.00,VWS V14.01,2013-08-04 06:30:00,
2013-08-04 01:40:00,63.8,57.0,30.18,NNE,25,1.0,4.0,79,0.00,,,0.00,weatherlink.com 1.10,2013-08-04 06:40:00,
2013-08-04 01:50:00,63.7,57.1,30.17,NNE,22,1.0,4.0,79,0.00,,---,0.00,VWS V14.01,2013-08-04 06:50:00,
2013-08-04 01:56:00,63.6,57.0,30.17,NE,50,0.0,5.0,79,0.00,,,0.00,weatherlink.com 1.10,2013-08-04 06:56:00,
2013-08-04 02:00:00,63.6,57.0,30.17,NNE,22,2.0,5.0,79,0.00,,---,0.00,VWS V14.01,2013-08-04 07:00:00,
2013-08-04 02:10:00,63.6,56.6,30.16,NE,45,2.0,4.0,78,0.00,,---,0.00,VWS V14.01,2013-08-04 07:10:00,
2013-08-04 02:11:00,63.6,57.0,30.16,ENE,68,3.0,4.0,78,0.00,,,0.00,weatherlink.com 1.10,2013-08-04 07:11:00,
2013-08-04 02:20:00,63.6,56.6,30.16,ENE,68,1.0,3.0,78,0.00,,---,0.00,VWS V14.01,2013-08-04 07:20:00,
2013-08-04 02:26:00,63.6,57.0,30.16,NNE,14,0.0,3.0,78,0.00,,,0.00,weatherlink.com 1.10,2013-08-04 07:26:00,
2013-08-04 02:30:00,63.6,56.6,30.16,ENE,68,1.0,3.0,78,0.00,,---,0.00,VWS V14.01,2013-08-04 07:30:00,
2013-08-04 02:40:00,63.4,56.1,30.16,NE,45,1.0,3.0,77,0.00,,---,0.00,VWS V14.01,2013-08-04 07:40:00,
2013-08-04 02:41:00,63.6,56.0,30.16,East,84,0.0,3.0,77,0.00,,,0.00,weatherlink.com 1.10,2013-08-04 07:41:00,
2013-08-04 02:50:00,63.6,56.3,30.16,NE,45,1.0,3.0,77,0.00,,---,0.00,VWS V14.01,2013-08-04 07:50:00,
2013-08-04 02:56:00,63.6,56.0,30.16,East,79,1.0,2.0,77,0.00,,,0.00,weatherlink.com 1.10,2013-08-04 07:56:00,
2013-08-04 03:00:00,63.6,55.9,30.16,NE,45,1.0,3.0,76,0.00,,---,0.00,VWS V14.01,2013-08-04 08:00:00,
2013-08-04 03:10:00,63.5,56.2,30.17,NE,45,1.0,3.0,77,0.00,,---,0.00,VWS V14.01,2013-08-04 08:10:00,
2013-08-04 03:11:00,63.3,56.0,30.17,NNE,27,0.0,2.0,77,0.00,,,0.00,weatherlink.com 1.10,2013-08-04 08:11:00,
2013-08-04 03:20:00,63.2,55.9,30.18,ENE,68,0.0,2.0,77,0.00,,---,0.00,VWS V14.01,2013-08-04 08:20:00,
2013-08-04 03:26:00,63.5,56.0,30.18,SSE,165,1.0,3.0,76,0.00,,,0.00,weatherlink.com 1.10,2013-08-04 08:26:00,
2013-08-04 03:30:00,63.4,55.3,30.18,SE,135,1.0,3.0,75,0.00,,---,0.00,VWS V14.01,2013-08-04 08:30:00,
2013-08-04 03:40:00,63.3,55.2,30.19,East,90,1.0,4.0,75,0.00,,---,0.00,VWS V14.01,2013-08-04 08:40:00,
2013-08-04 03:41:00,63.4,55.0,30.19,ESE,103,1.0,4.0,75,0.00,,,0.00,weatherlink.com 1.10,2013-08-04 08:41:00,
2013-08-04 03:50:00,63.5,55.1,30.19,ESE,112,1.0,4.0,74,0.00,,---,0.00,VWS V14.01,2013-08-04 08:50:00,
2013-08-04 03:56:00,63.8,55.0,30.19,East,100,1.0,3.0,74,0.00,,,0.00,weatherlink.com 1.10,2013-08-04 08:56:00,
2013-08-04 04:00:00,63.7,55.3,30.20,SE,135,1.0,3.0,74,0.00,,---,0.00,VWS V14.01,2013-08-04 09:00:00,
2013-08-04 04:10:00,63.6,55.2,30.19,SE,135,1.0,4.0,74,0.00,,---,0.00,VWS V14.01,2013-08-04 09:10:00,
2013-08-04 04:12:00,63.7,55.0,30.19,ESE,106,1.0,4.0,74,0.00,,,0.00,weatherlink.com 1.10,2013-08-04 09:12:00,
2013-08-04 04:20:00,63.7,55.3,30.19,ESE,112,1.0,4.0,74,0.00,,---,0.00,VWS V14.01,2013-08-04 09:20:00,
2013-08-04 04:26:00,63.7,55.0,30.19,ESE,115,2.0,4.0,74,0.00,,,0.00,weatherlink.com 1.10,2013-08-04 09:26:00,
2013-08-04 04:30:00,63.7,55.3,30.19,East,90,2.0,4.0,74,0.00,,---,0.00,VWS V14.01,2013-08-04 09:30:00,
2013-08-04 04:40:00,63.7,55.6,30.19,SE,135,2.0,4.0,75,0.00,,---,0.00,VWS V14.01,2013-08-04 09:40:00,
2013-08-04 04:41:00,63.6,56.0,30.19,ENE,65,3.0,4.0,75,0.00,,,0.00,weatherlink.com 1.10,2013-08-04 09:41:00,
2013-08-04 04:50:00,63.4,55.3,30.20,SE,135,1.0,3.0,75,0.00,,---,0.00,VWS V14.01,2013-08-04 09:50:00,
2013-08-04 04:56:00,63.2,56.0,30.20,ENE,71,1.0,2.0,76,0.00,,,0.00,weatherlink.com 1.10,2013-08-04 09:56:00,
2013-08-04 05:00:00,63.3,55.6,30.20,East,90,1.0,2.0,76,0.00,,---,0.00,VWS V14.01,2013-08-04 10:00:00,
2013-08-04 05:10:00,62.8,55.5,30.20,NE,45,1.0,3.0,77,0.00,,---,0.00,VWS V14.01,2013-08-04 10:10:00,
2013-08-04 05:20:00,62.4,55.5,30.19,NE,45,0.0,2.0,78,0.00,,---,0.00,VWS V14.01,2013-08-04 10:20:00,
2013-08-04 05:26:00,62.1,56.0,30.19,NE,56,1.0,3.0,79,0.00,,,0.00,weatherlink.com 1.10,2013-08-04 10:26:00,
2013-08-04 05:30:00,62.1,55.5,30.18,NE,45,1.0,3.0,79,0.00,,---,0.00,VWS V14.01,2013-08-04 10:30:00,
2013-08-04 05:40:00,62.1,55.5,30.18,NE,45,2.0,4.0,79,0.00,,---,0.00,VWS V14.01,2013-08-04 10:40:00,
2013-08-04 05:50:00,62.0,55.4,30.18,ENE,68,1.0,2.0,79,0.00,,---,0.00,VWS V14.01,2013-08-04 10:50:00,
2013-08-04 05:56:00,61.3,55.0,30.18,NNE,26,0.0,2.0,81,0.00,,,0.00,weatherlink.com 1.10,2013-08-04 10:56:00,
2013-08-04 06:00:00,61.4,55.5,30.18,NNE,22,1.0,2.0,81,0.00,,---,0.00,VWS V14.01,2013-08-04 11:00:00,
2013-08-04 06:10:00,61.0,55.5,30.19,NNE,22,0.0,1.0,82,0.00,,---,0.00,VWS V14.01,2013-08-04 11:10:00,
2013-08-04 06:20:00,60.6,55.4,30.19,SE,135,0.0,1.0,83,0.00,,---,0.00,VWS V14.01,2013-08-04 11:20:00,
2013-08-04 06:26:00,60.5,55.0,30.19,SE,134,0.0,1.0,83,0.00,,,0.00,weatherlink.com 1.10,2013-08-04 11:26:00,
2013-08-04 06:30:00,60.5,55.3,30.19,SE,135,0.0,2.0,83,0.00,,---,0.00,VWS V14.01,2013-08-04 11:30:00,
2013-08-04 06:40:00,60.9,55.0,30.19,East,90,1.0,4.0,81,0.00,,---,0.00,VWS V14.01,2013-08-04 11:40:00,
2013-08-04 06:50:00,61.4,55.2,30.19,SSE,158,1.0,3.0,80,0.00,,---,0.00,VWS V14.01,2013-08-04 11:50:00,
2013-08-04 06:56:00,62.5,56.0,30.19,South,172,2.0,3.0,79,0.00,,,0.00,weatherlink.com 1.10,2013-08-04 11:56:00,
2013-08-04 07:00:00,62.3,55.4,30.19,ESE,112,1.0,4.0,78,0.00,,---,0.00,VWS V14.01,2013-08-04 12:00:00,
2013-08-04 07:10:00,63.4,55.3,30.19,SSE,158,2.0,4.0,75,0.00,,---,0.00,VWS V14.01,2013-08-04 12:10:00,
2013-08-04 07:20:00,60.6,55.4,30.19,SE,135,0.0,1.0,83,0.00,,---,0.00,VWS V14.01,2013-08-04 12:20:00,
2013-08-04 07:26:00,64.7,56.0,30.19,East,84,2.0,4.0,74,0.00,,,0.00,weatherlink.com 1.10,2013-08-04 12:26:00,
2013-08-04 07:30:00,65.0,56.2,30.19,ESE,117,1.0,2.0,73,0.00,,---,0.00,VWS V14.01,2013-08-04 12:30:00,
2013-08-04 07:31:00,65.1,56.2,30.19,East,101,3.0,3.0,73,0.00,,---,0.00,VWS V14.01,2013-08-04 12:31:00,
2013-08-04 07:36:00,65.6,56.3,30.19,WSW,244,1.0,4.0,72,0.00,,---,0.00,VWS V14.01,2013-08-04 12:36:00,
2013-08-04 07:40:00,66.0,56.3,30.19,ENE,67,2.0,4.0,71,0.00,,---,0.00,VWS V14.01,2013-08-04 12:40:00,
2013-08-04 07:41:00,66.1,56.4,30.19,East,80,1.0,4.0,71,0.00,,---,0.00,VWS V14.01,2013-08-04 12:41:00,
2013-08-04 07:46:00,66.4,56.7,30.19,ESE,105,1.0,4.0,71,0.00,,---,0.00,VWS V14.01,2013-08-04 12:46:00,
2013-08-04 07:50:00,66.6,56.5,30.18,ESE,111,4.0,4.0,70,0.00,,---,0.00,VWS V14.01,2013-08-04 12:50:00,
2013-08-04 07:52:00,66.7,56.2,30.18,East,101,3.0,5.0,69,0.00,,---,0.00,VWS V14.01,2013-08-04 12:52:00,
2013-08-04 07:57:00,67.1,56.6,30.18,SE,137,2.0,5.0,69,0.00,,---,0.00,VWS V14.01,2013-08-04 12:57:00,
2013-08-04 08:00:00,67.2,56.3,30.18,East,99,2.0,6.0,68,0.00,,---,0.00,VWS V14.01,2013-08-04 13:00:00,
2013-08-04 08:01:00,67.2,56.3,30.18,SE,129,3.0,3.0,68,0.00,,---,0.00,VWS V14.01,2013-08-04 13:01:00,
2013-08-04 08:06:00,67.6,56.7,30.19,ENE,71,0.0,5.0,68,0.00,,---,0.00,VWS V14.01,2013-08-04 13:06:00,
2013-08-04 08:10:00,67.9,56.5,30.18,SE,129,4.0,5.0,67,0.00,,---,0.00,VWS V14.01,2013-08-04 13:10:00,
2013-08-04 08:12:00,68.0,56.7,30.19,ESE,118,1.0,4.0,67,0.00,,---,0.00,VWS V14.01,2013-08-04 13:12:00,
2013-08-04 08:17:00,68.2,56.4,30.18,SSE,164,5.0,5.0,66,0.00,,---,0.00,VWS V14.01,2013-08-04 13:17:00,
2013-08-04 08:20:00,68.5,56.3,30.18,ESE,106,1.0,5.0,65,0.00,,---,0.00,VWS V14.01,2013-08-04 13:20:00,
2013-08-04 08:22:00,68.6,56.4,30.18,SE,138,1.0,3.0,65,0.00,,---,0.00,VWS V14.01,2013-08-04 13:22:00,
2013-08-04 08:27:00,68.7,56.5,30.18,NE,50,4.0,6.0,65,0.00,,---,0.00,VWS V14.01,2013-08-04 13:27:00,
2013-08-04 08:30:00,68.6,56.0,30.18,SE,132,2.0,6.0,64,0.00,,---,0.00,VWS V14.01,2013-08-04 13:30:00,
2013-08-04 08:32:00,68.6,56.0,30.18,ESE,122,2.0,8.0,64,0.00,,---,0.00,VWS V14.01,2013-08-04 13:32:00,
2013-08-04 08:37:00,68.7,56.5,30.18,SE,134,2.0,8.0,65,0.00,,---,0.00,VWS V14.01,2013-08-04 13:37:00,
2013-08-04 08:40:00,68.8,56.6,30.18,East,89,3.0,8.0,65,0.00,,---,0.00,VWS V14.01,2013-08-04 13:40:00,
2013-08-04 08:42:00,69.0,56.3,30.18,SSE,159,3.0,5.0,64,0.00,,---,0.00,VWS V14.01,2013-08-04 13:42:00,
2013-08-04 08:47:00,69.4,57.1,30.18,NE,51,4.0,6.0,65,0.00,,---,0.00,VWS V14.01,2013-08-04 13:47:00,
2013-08-04 08:50:00,69.2,56.5,30.18,East,80,2.0,6.0,64,0.00,,---,0.00,VWS V14.01,2013-08-04 13:50:00,
2013-08-04 08:52:00,69.2,56.5,30.18,SSE,167,3.0,6.0,64,0.00,,---,0.00,VWS V14.01,2013-08-04 13:52:00,
2013-08-04 08:57:00,69.6,57.3,30.18,ENE,70,5.0,6.0,65,0.00,,---,0.00,VWS V14.01,2013-08-04 13:57:00,
2013-08-04 09:00:00,69.6,56.5,30.18,NE,49,4.0,7.0,63,0.00,,---,0.00,VWS V14.01,2013-08-04 14:00:00,
2013-08-04 09:02:00,69.6,56.5,30.18,SE,129,1.0,6.0,63,0.00,,---,0.00,VWS V14.01,2013-08-04 14:02:00,
2013-08-04 09:07:00,69.9,56.8,30.18,SSE,154,4.0,7.0,63,0.00,,---,0.00,VWS V14.01,2013-08-04 14:07:00,
2013-08-04 09:10:00,70.3,56.7,30.18,SE,143,3.0,7.0,62,0.00,,---,0.00,VWS V14.01,2013-08-04 14:10:00,
2013-08-04 09:12:00,70.6,56.5,30.18,ENE,58,1.0,5.0,61,0.00,,---,0.00,VWS V14.01,2013-08-04 14:12:00,
2013-08-04 09:17:00,71.3,56.7,30.18,SE,127,3.0,10.0,60,0.00,,---,0.00,VWS V14.01,2013-08-04 14:17:00,
2013-08-04 09:20:00,71.2,56.6,30.18,SSE,161,6.0,10.0,60,0.00,,---,0.00,VWS V14.01,2013-08-04 14:20:00,
2013-08-04 09:22:00,71.1,56.5,30.18,SW,215,4.0,7.0,60,0.00,,---,0.00,VWS V14.01,2013-08-04 14:22:00,
2013-08-04 09:27:00,71.2,57.1,30.19,SE,141,7.0,9.0,61,0.00,,---,0.00,VWS V14.01,2013-08-04 14:27:00,
2013-08-04 09:30:00,71.1,57.0,30.19,SSW,211,3.0,11.0,61,0.00,,---,0.00,VWS V14.01,2013-08-04 14:30:00,
2013-08-04 09:32:00,70.9,56.3,30.19,SE,131,6.0,9.0,60,0.00,,---,0.00,VWS V14.01,2013-08-04 14:32:00,
2013-08-04 09:40:00,68.8,56.6,30.18,East,89,3.0,8.0,65,0.00,,---,0.00,VWS V14.01,2013-08-04 14:40:00,
2013-08-04 09:42:00,70.5,57.0,30.19,ESE,114,7.0,10.0,62,0.00,,,0.00,weatherlink.com 1.10,2013-08-04 14:42:00,
2013-08-04 09:50:00,69.2,56.5,30.18,East,80,2.0,6.0,64,0.00,,---,0.00,VWS V14.01,2013-08-04 14:50:00,
2013-08-04 09:58:00,70.8,57.0,30.19,South,190,7.0,8.0,61,0.00,,,0.00,weatherlink.com 1.10,2013-08-04 14:58:00,
2013-08-04 10:00:00,69.6,56.5,30.18,NE,49,4.0,7.0,63,0.00,,---,0.00,VWS V14.01,2013-08-04 15:00:00,
2013-08-04 10:10:00,70.3,56.7,30.18,SE,143,3.0,7.0,62,0.00,,---,0.00,VWS V14.01,2013-08-04 15:10:00,
2013-08-04 10:12:00,72.7,57.0,30.18,SSW,201,4.0,8.0,59,0.00,,,0.00,weatherlink.com 1.10,2013-08-04 15:12:00,
2013-08-04 10:20:00,71.2,56.6,30.18,SSE,161,6.0,10.0,60,0.00,,---,0.00,VWS V14.01,2013-08-04 15:20:00,
2013-08-04 10:27:00,74.2,58.0,30.18,SE,136,6.0,12.0,57,0.00,,,0.00,weatherlink.com 1.10,2013-08-04 15:27:00,
2013-08-04 10:30:00,71.1,57.0,30.19,SSW,211,3.0,11.0,61,0.00,,---,0.00,VWS V14.01,2013-08-04 15:30:00,
2013-08-04 10:43:00,73.9,57.0,30.18,SE,138,9.0,12.0,56,0.00,,,0.00,weatherlink.com 1.10,2013-08-04 15:43:00,
2013-08-04 10:58:00,74.5,59.0,30.17,SSW,200,4.0,10.0,58,0.00,,,0.00,weatherlink.com 1.10,2013-08-04 15:58:00,
2013-08-04 11:13:00,75.4,58.0,30.16,SE,135,3.0,14.0,55,0.00,,,0.00,weatherlink.com 1.10,2013-08-04 16:13:00,
2013-08-04 11:20:00,70.8,56.7,30.19,ESE,121,3.0,9.0,61,0.00,,---,0.00,VWS V14.01,2013-08-04 16:20:00,
2013-08-04 11:25:00,74.5,57.8,30.17,SSW,210,7.0,11.0,56,0.00,,---,0.00,VWS V14.01,2013-08-04 16:25:00,
2013-08-04 11:30:00,74.0,57.8,30.16,SE,143,8.0,12.0,57,0.00,,---,0.00,VWS V14.01,2013-08-04 16:30:00,
2013-08-04 11:35:00,74.2,58.5,30.16,ESE,112,8.0,9.0,58,0.00,,---,0.00,VWS V14.01,2013-08-04 16:35:00,
2013-08-04 11:40:00,74.6,58.9,30.16,SSW,196,6.0,6.0,58,0.00,,---,0.00,VWS V14.01,2013-08-04 16:40:00,
2013-08-04 11:45:00,74.7,58.5,30.16,South,184,4.0,13.0,57,0.00,,---,0.00,VWS V14.01,2013-08-04 16:45:00,
2013-08-04 11:50:00,74.5,58.3,30.16,East,99,9.0,9.0,57,0.00,,---,0.00,VWS V14.01,2013-08-04 16:50:00,
2013-08-04 11:55:00,74.5,58.8,30.16,SSE,153,9.0,9.0,58,0.00,,---,0.00,VWS V14.01,2013-08-04 16:55:00,
2013-08-04 12:00:00,75.2,60.8,30.16,ENE,73,7.0,7.0,61,0.00,,---,0.00,VWS V14.01,2013-08-04 17:00:00,
2013-08-04 12:05:00,75.6,58.8,30.16,ESE,122,8.0,14.0,56,0.00,,---,0.00,VWS V14.01,2013-08-04 17:05:00,
2013-08-04 12:10:00,75.2,58.4,30.16,SE,142,2.0,4.0,56,0.00,,---,0.00,VWS V14.01,2013-08-04 17:10:00,
2013-08-04 12:15:00,75.1,58.8,30.16,ESE,120,7.0,11.0,57,0.00,,---,0.00,VWS V14.01,2013-08-04 17:15:00,
2013-08-04 12:20:00,74.9,59.0,30.16,SSE,150,4.0,10.0,57,0.00,,,0.00,weatherlink.com 1.10,2013-08-04 17:20:00,
2013-08-04 12:25:00,74.8,59.0,30.16,South,171,3.0,9.0,58,0.00,,---,0.00,VWS V14.01,2013-08-04 17:25:00,
2013-08-04 12:30:00,75.1,58.8,30.16,East,97,7.0,7.0,57,0.00,,---,0.00,VWS V14.01,2013-08-04 17:30:00,
2013-08-04 12:35:00,74.9,59.1,30.16,SE,127,3.0,8.0,58,0.00,,---,0.00,VWS V14.01,2013-08-04 17:35:00,
2013-08-04 12:40:00,74.4,58.2,30.15,SE,137,5.0,6.0,57,0.00,,---,0.00,VWS V14.01,2013-08-04 17:40:00,
2013-08-04 12:45:00,74.2,58.5,30.15,ESE,103,2.0,6.0,58,0.00,,---,0.00,VWS V14.01,2013-08-04 17:45:00,
2013-08-04 12:50:00,74.2,58.5,30.15,ENE,65,3.0,4.0,58,0.00,,---,0.00,VWS V14.01,2013-08-04 17:50:00,
2013-08-04 12:55:00,74.2,58.5,30.15,SE,141,7.0,10.0,58,0.00,,---,0.00,VWS V14.01,2013-08-04 17:55:00,
2013-08-04 13:00:00,74.1,58.9,30.14,SE,135,2.0,5.0,59,0.00,,---,0.00,VWS V14.01,2013-08-04 18:00:00,
2013-08-04 13:05:00,74.4,59.2,30.14,SE,140,4.0,6.0,59,0.00,,---,0.00,VWS V14.01,2013-08-04 18:05:00,
2013-08-04 13:10:00,74.6,58.9,30.14,East,82,2.0,6.0,58,0.00,,---,0.00,VWS V14.01,2013-08-04 18:10:00,
2013-08-04 13:15:00,74.7,59.0,30.14,East,84,1.0,6.0,58,0.00,,---,0.00,VWS V14.01,2013-08-04 18:15:00,
2013-08-04 13:20:00,74.6,58.9,30.14,South,174,5.0,6.0,58,0.00,,---,0.00,VWS V14.01,2013-08-04 18:20:00,
2013-08-04 13:25:00,74.5,58.8,30.14,SSE,165,3.0,7.0,58,0.00,,---,0.00,VWS V14.01,2013-08-04 18:25:00,
2013-08-04 13:30:00,74.5,58.8,30.14,SSE,152,4.0,5.0,58,0.00,,---,0.00,VWS V14.01,2013-08-04 18:30:00,
2013-08-04 13:35:00,75.1,59.8,30.14,NNW,333,4.0,5.0,59,0.00,,---,0.00,VWS V14.01,2013-08-04 18:35:00,
2013-08-04 13:40:00,74.7,59.0,30.14,East,89,4.0,5.0,58,0.00,,---,0.00,VWS V14.01,2013-08-04 18:40:00,
2013-08-04 13:45:00,74.7,59.0,30.14,East,91,4.0,6.0,58,0.00,,---,0.00,VWS V14.01,2013-08-04 18:45:00,
2013-08-04 13:50:00,74.8,60.0,30.14,SSE,160,2.0,5.0,60,0.00,,---,0.00,VWS V14.01,2013-08-04 18:50:00,
2013-08-04 13:55:00,74.7,59.9,30.14,ENE,77,2.0,6.0,60,0.00,,---,0.00,VWS V14.01,2013-08-04 18:55:00,
2013-08-04 14:00:00,75.1,59.8,30.14,East,96,2.0,3.0,59,0.00,,---,0.00,VWS V14.01,2013-08-04 19:00:00,
2013-08-04 14:05:00,75.6,60.8,30.14,SE,135,2.0,3.0,60,0.00,,---,0.00,VWS V14.01,2013-08-04 19:05:00,
2013-08-04 14:10:00,75.7,59.9,30.14,SE,126,1.0,5.0,58,0.00,,---,0.00,VWS V14.01,2013-08-04 19:10:00,
2013-08-04 14:15:00,75.9,60.6,30.13,East,81,3.0,6.0,59,0.00,,---,0.00,VWS V14.01,2013-08-04 19:15:00,
2013-08-04 14:20:00,76.1,60.3,30.13,South,174,3.0,3.0,58,0.00,,---,0.00,VWS V14.01,2013-08-04 19:20:00,
2013-08-04 14:25:00,76.9,60.5,30.13,South,173,5.0,8.0,57,0.00,,---,0.00,VWS V14.01,2013-08-04 19:25:00,
2013-08-04 14:30:00,76.8,60.4,30.13,SE,141,7.0,7.0,57,0.00,,---,0.00,VWS V14.01,2013-08-04 19:30:00,
2013-08-04 14:35:00,77.0,61.6,30.13,East,101,6.0,7.0,59,0.00,,---,0.00,VWS V14.01,2013-08-04 19:35:00,
2013-08-04 14:40:00,76.8,60.9,30.13,SSE,168,5.0,6.0,58,0.00,,---,0.00,VWS V14.01,2013-08-04 19:40:00,
2013-08-04 14:45:00,76.7,60.8,30.12,SSW,202,3.0,11.0,58,0.00,,---,0.00,VWS V14.01,2013-08-04 19:45:00,
2013-08-04 14:50:00,76.9,61.5,30.12,South,173,1.0,3.0,59,0.00,,---,0.00,VWS V14.01,2013-08-04 19:50:00,
2013-08-04 14:55:00,76.6,60.7,30.12,SSE,157,5.0,8.0,58,0.00,,---,0.00,VWS V14.01,2013-08-04 19:55:00,
2013-08-04 15:00:00,76.3,60.9,30.12,NE,39,2.0,2.0,59,0.00,,---,0.00,VWS V14.01,2013-08-04 20:00:00,
2013-08-04 15:05:00,76.1,61.2,30.12,ESE,109,5.0,7.0,60,0.00,,---,0.00,VWS V14.01,2013-08-04 20:05:00,
2013-08-04 15:10:00,76.6,61.7,30.12,SE,145,8.0,10.0,60,0.00,,---,0.00,VWS V14.01,2013-08-04 20:10:00,
2013-08-04 15:15:00,76.3,60.5,30.12,South,169,10.0,12.0,58,0.00,,---,0.00,VWS V14.01,2013-08-04 20:15:00,
2013-08-04 15:20:00,75.7,59.9,30.11,SW,220,5.0,5.0,58,0.00,,---,0.00,VWS V14.01,2013-08-04 20:20:00,
2013-08-04 15:25:00,75.3,60.0,30.11,SSW,200,9.0,11.0,59,0.00,,---,0.00,VWS V14.01,2013-08-04 20:25:00,
2013-08-04 15:30:00,75.2,60.4,30.11,South,179,6.0,6.0,60,0.00,,---,0.00,VWS V14.01,2013-08-04 20:30:00,
2013-08-04 15:35:00,75.1,60.8,30.11,SE,131,2.0,11.0,61,0.00,,---,0.00,VWS V14.01,2013-08-04 20:35:00,
2013-08-04 15:40:00,75.5,61.1,30.11,ESE,122,5.0,5.0,61,0.00,,---,0.00,VWS V14.01,2013-08-04 20:40:00,
2013-08-04 15:45:00,75.3,61.4,30.10,South,184,5.0,11.0,62,0.00,,---,0.00,VWS V14.01,2013-08-04 20:45:00,
2013-08-04 15:50:00,75.5,61.1,30.10,SSW,201,5.0,7.0,61,0.00,,---,0.00,VWS V14.01,2013-08-04 20:50:00,
2013-08-04 15:55:00,76.1,62.2,30.09,South,172,5.0,10.0,62,0.00,,---,0.00,VWS V14.01,2013-08-04 20:55:00,
2013-08-04 16:00:00,76.2,61.3,30.09,WSW,240,7.0,7.0,60,0.00,,---,0.00,VWS V14.01,2013-08-04 21:00:00,
2013-08-04 16:05:00,76.7,61.8,30.08,SSW,198,6.0,12.0,60,0.00,,---,0.00,VWS V14.01,2013-08-04 21:05:00,
2013-08-04 16:10:00,77.0,61.1,30.08,ESE,120,5.0,7.0,58,0.00,,---,0.00,VWS V14.01,2013-08-04 21:10:00,
2013-08-04 16:15:00,77.0,61.6,30.08,ESE,120,7.0,11.0,59,0.00,,---,0.00,VWS V14.01,2013-08-04 21:15:00,
2013-08-04 16:20:00,77.8,62.3,30.07,South,178,6.0,6.0,59,0.00,,---,0.00,VWS V14.01,2013-08-04 21:20:00,
2013-08-04 16:25:00,77.7,61.8,30.07,ESE,107,7.0,16.0,58,0.00,,---,0.00,VWS V14.01,2013-08-04 21:25:00,
2013-08-04 16:30:00,78.1,62.1,30.07,SSW,192,9.0,9.0,58,0.00,,---,0.00,VWS V14.01,2013-08-04 21:30:00,
2013-08-04 16:35:00,77.9,62.0,30.07,SSW,210,7.0,17.0,58,0.00,,---,0.00,VWS V14.01,2013-08-04 21:35:00,
2013-08-04 16:40:00,77.9,62.4,30.06,South,180,9.0,17.0,59,0.00,,---,0.00,VWS V14.01,2013-08-04 21:40:00,
2013-08-04 16:50:00,77.7,62.2,30.06,South,180,7.0,16.0,59,0.00,,---,0.00,VWS V14.01,2013-08-04 21:50:00,
2013-08-04 16:53:00,78.0,63.0,30.05,ESE,113,8.0,16.0,60,0.00,,,0.00,weatherlink.com 1.10,2013-08-04 21:53:00,
2013-08-04 17:00:00,77.9,62.9,30.05,SSE,158,7.0,14.0,60,0.00,,---,0.00,VWS V14.01,2013-08-04 22:00:00,
2013-08-04 17:08:00,78.1,64.0,30.05,SSW,204,6.0,14.0,62,0.00,,,0.00,weatherlink.com 1.10,2013-08-04 22:08:00,
2013-08-04 17:10:00,77.8,63.3,30.05,SSW,202,7.0,14.0,61,0.00,,---,0.00,VWS V14.01,2013-08-04 22:10:00,
2013-08-04 17:20:00,78.0,63.9,30.05,SSW,202,6.0,12.0,62,0.00,,---,0.00,VWS V14.01,2013-08-04 22:20:00,
2013-08-04 17:23:00,78.0,64.0,30.05,SSW,203,10.0,12.0,62,0.00,,,0.00,weatherlink.com 1.10,2013-08-04 22:23:00,
2013-08-04 17:30:00,78.0,64.4,30.05,SSW,202,6.0,13.0,63,0.00,,---,0.00,VWS V14.01,2013-08-04 22:30:00,
2013-08-04 17:38:00,77.9,64.0,30.05,SSW,192,4.0,13.0,63,0.00,,,0.00,weatherlink.com 1.10,2013-08-04 22:38:00,
2013-08-04 17:40:00,78.0,64.4,30.05,SSW,202,5.0,13.0,63,0.00,,---,0.00,VWS V14.01,2013-08-04 22:40:00,
2013-08-04 17:50:00,78.1,64.5,30.05,South,180,7.0,13.0,63,0.00,,---,0.00,VWS V14.01,2013-08-04 22:50:00,
2013-08-04 17:53:00,77.9,64.0,30.05,SE,129,2.0,12.0,63,0.00,,,0.00,weatherlink.com 1.10,2013-08-04 22:53:00,
2013-08-04 18:00:00,77.9,64.3,30.05,SSE,158,4.0,9.0,63,0.00,,---,0.00,VWS V14.01,2013-08-04 23:00:00,
2013-08-04 18:09:00,77.8,65.0,30.05,SSW,206,5.0,10.0,64,0.00,,,0.00,weatherlink.com 1.10,2013-08-04 23:09:00,
2013-08-04 18:10:00,77.8,64.7,30.05,South,180,5.0,10.0,64,0.00,,---,0.00,VWS V14.01,2013-08-04 23:10:00,
2013-08-04 18:20:00,77.8,64.7,30.05,SE,135,4.0,8.0,64,0.00,,---,0.00,VWS V14.01,2013-08-04 23:20:00,
2013-08-04 18:24:00,77.6,65.0,30.05,SE,139,5.0,8.0,65,0.00,,,0.00,weatherlink.com 1.10,2013-08-04 23:24:00,
2013-08-04 18:30:00,77.5,64.8,30.05,SE,135,4.0,8.0,65,0.00,,---,0.00,VWS V14.01,2013-08-04 23:30:00,
2013-08-04 18:39:00,77.4,65.0,30.05,ESE,105,4.0,10.0,66,0.00,,,0.00,weatherlink.com 1.10,2013-08-04 23:39:00,
2013-08-04 18:40:00,77.5,65.3,30.05,SSE,158,5.0,10.0,66,0.00,,---,0.00,VWS V14.01,2013-08-04 23:40:00,
2013-08-04 18:50:00,76.8,65.0,30.05,SE,135,5.0,10.0,67,0.00,,---,0.00,VWS V14.01,2013-08-04 23:50:00,
2013-08-04 18:53:00,76.3,65.0,30.05,SSE,153,6.0,12.0,68,0.00,,,0.00,weatherlink.com 1.10,2013-08-04 23:53:00,
2013-08-04 19:00:00,76.3,65.0,30.05,SSE,158,6.0,12.0,68,0.00,,---,0.00,VWS V14.01,2013-08-05 00:00:00,
2013-08-04 19:08:00,75.6,66.0,30.05,SSE,153,2.0,11.0,71,0.00,,,0.00,weatherlink.com 1.10,2013-08-05 00:08:00,
2013-08-04 19:10:00,75.9,65.8,30.05,SSW,202,4.0,11.0,71,0.00,,---,0.00,VWS V14.01,2013-08-05 00:10:00,
2013-08-04 19:20:00,75.7,65.2,30.04,SE,135,4.0,10.0,70,0.00,,---,0.00,VWS V14.01,2013-08-05 00:20:00,
2013-08-04 19:24:00,75.9,65.0,30.04,SSW,210,2.0,8.0,70,0.00,,,0.00,weatherlink.com 1.10,2013-08-05 00:24:00,
2013-08-04 19:30:00,75.9,65.8,30.04,South,180,4.0,9.0,71,0.00,,---,0.00,VWS V14.01,2013-08-05 00:30:00,
2013-08-04 19:39:00,75.5,65.0,30.04,SSE,153,3.0,11.0,70,0.00,,,0.00,weatherlink.com 1.10,2013-08-05 00:39:00,
2013-08-04 19:40:00,75.6,65.1,30.04,SSE,158,5.0,11.0,70,0.00,,---,0.00,VWS V14.01,2013-08-05 00:40:00,
2013-08-04 19:50:00,75.4,65.3,30.04,SE,135,4.0,8.0,71,0.00,,---,0.00,VWS V14.01,2013-08-05 00:50:00,
2013-08-04 19:54:00,75.2,65.0,30.04,SE,136,3.0,8.0,71,0.00,,,0.00,weatherlink.com 1.10,2013-08-05 00:54:00,
2013-08-04 20:00:00,75.2,65.2,30.04,SSW,202,4.0,10.0,71,0.00,,---,0.00,VWS V14.01,2013-08-05 01:00:00,
2013-08-04 20:09:00,74.5,65.0,30.04,East,82,7.0,9.0,73,0.00,,,0.00,weatherlink.com 1.10,2013-08-05 01:09:00,
2013-08-04 20:10:00,74.8,65.6,30.04,SSW,202,4.0,9.0,73,0.00,,---,0.00,VWS V14.01,2013-08-05 01:10:00,
2013-08-04 20:20:00,74.2,65.8,30.04,South,180,4.0,10.0,75,0.00,,---,0.00,VWS V14.01,2013-08-05 01:20:00,
2013-08-04 20:24:00,73.9,66.0,30.04,SSW,195,5.0,10.0,75,0.00,,,0.00,weatherlink.com 1.10,2013-08-05 01:24:00,
2013-08-04 20:30:00,73.8,65.8,30.04,SSW,202,3.0,10.0,76,0.00,,---,0.00,VWS V14.01,2013-08-05 01:30:00,
2013-08-04 20:39:00,73.0,66.0,30.04,South,174,3.0,7.0,78,0.00,,,0.00,weatherlink.com 1.10,2013-08-05 01:39:00,
2013-08-04 20:40:00,73.4,66.1,30.04,SSW,202,3.0,7.0,78,0.00,,---,0.00,VWS V14.01,2013-08-05 01:40:00,
2013-08-04 20:50:00,72.8,65.9,30.04,SSW,202,3.0,7.0,79,0.00,,---,0.00,VWS V14.01,2013-08-05 01:50:00,
2013-08-04 20:54:00,72.5,66.0,30.04,SSW,198,2.0,7.0,79,0.00,,,0.00,weatherlink.com 1.10,2013-08-05 01:54:00,
2013-08-04 21:00:00,72.4,66.2,30.04,SSW,202,2.0,6.0,81,0.00,,---,0.00,VWS V14.01,2013-08-05 02:00:00,
2013-08-04 21:09:00,72.1,66.0,30.04,SSW,199,5.0,8.0,81,0.00,,,0.00,weatherlink.com 1.10,2013-08-05 02:09:00,
2013-08-04 21:10:00,72.1,65.9,30.04,SSW,202,3.0,8.0,81,0.00,,---,0.00,VWS V14.01,2013-08-05 02:10:00,
2013-08-04 21:20:00,71.7,66.3,30.05,SSW,202,3.0,8.0,83,0.00,,---,0.00,VWS V14.01,2013-08-05 02:20:00,
2013-08-04 21:24:00,71.6,66.0,30.05,SW,223,5.0,8.0,83,0.00,,,0.00,weatherlink.com 1.10,2013-08-05 02:24:00,
2013-08-04 21:30:00,71.6,66.2,30.05,SSW,202,4.0,8.0,83,0.00,,---,0.00,VWS V14.01,2013-08-05 02:30:00,
2013-08-04 21:39:00,71.5,66.0,30.06,SSW,197,2.0,8.0,83,0.00,,,0.00,weatherlink.com 1.10,2013-08-05 02:39:00,
2013-08-04 21:40:00,71.5,66.1,30.06,SSW,202,3.0,8.0,83,0.00,,---,0.00,VWS V14.01,2013-08-05 02:40:00,
2013-08-04 21:50:00,71.5,66.4,30.06,SSW,202,4.0,10.0,84,0.00,,---,0.00,VWS V14.01,2013-08-05 02:50:00,
2013-08-04 21:54:00,71.5,67.0,30.07,SW,217,9.0,9.0,84,0.00,,,0.00,weatherlink.com 1.10,2013-08-05 02:54:00,
2013-08-04 22:00:00,71.6,66.2,30.06,SSW,202,3.0,9.0,83,0.00,,---,0.00,VWS V14.01,2013-08-05 03:00:00,
2013-08-04 22:09:00,71.5,67.0,30.07,SSE,160,1.0,8.0,84,0.00,,,0.00,weatherlink.com 1.10,2013-08-05 03:09:00,
2013-08-04 22:10:00,71.5,66.4,30.07,SSW,202,3.0,8.0,84,0.00,,---,0.00,VWS V14.01,2013-08-05 03:10:00,
2013-08-04 22:20:00,71.6,66.5,30.07,SSW,202,2.0,7.0,84,0.00,,---,0.00,VWS V14.01,2013-08-05 03:20:00,
2013-08-04 22:23:00,71.3,66.0,30.07,South,182,2.0,7.0,84,0.00,,,0.00,weatherlink.com 1.10,2013-08-05 03:23:00,
2013-08-04 22:30:00,71.4,66.3,30.07,SSW,202,3.0,9.0,84,0.00,,---,0.00,VWS V14.01,2013-08-05 03:30:00,
2013-08-04 22:38:00,71.1,66.0,30.07,SSW,213,4.0,9.0,84,0.00,,,0.00,weatherlink.com 1.10,2013-08-05 03:38:00,
2013-08-04 22:40:00,71.2,66.1,30.07,SSW,202,4.0,9.0,84,0.00,,---,0.00,VWS V14.01,2013-08-05 03:40:00,
2013-08-04 22:50:00,71.3,66.2,30.07,SSW,202,4.0,10.0,84,0.00,,---,0.00,VWS V14.01,2013-08-05 03:50:00,
2013-08-04 22:54:00,71.0,66.0,30.07,South,179,3.0,10.0,85,0.00,,,0.00,weatherlink.com 1.10,2013-08-05 03:54:00,
2013-08-04 23:00:00,71.0,65.9,30.07,SSW,202,4.0,11.0,84,0.00,,---,0.00,VWS V14.01,2013-08-05 04:00:00,
2013-08-04 23:08:00,70.9,66.0,30.07,South,176,4.0,8.0,84,0.00,,,0.00,weatherlink.com 1.10,2013-08-05 04:08:00,
2013-08-04 23:10:00,71.1,66.0,30.07,SSW,202,3.0,7.0,84,0.00,,---,0.00,VWS V14.01,2013-08-05 04:10:00,
2013-08-04 23:20:00,71.0,65.6,30.07,SSW,202,4.0,8.0,83,0.00,,---,0.00,VWS V14.01,2013-08-05 04:20:00,
2013-08-04 23:24:00,71.2,66.0,30.07,SSE,147,2.0,8.0,83,0.00,,,0.00,weatherlink.com 1.10,2013-08-05 04:24:00,
2013-08-04 23:30:00,71.1,66.0,30.06,SSE,158,4.0,9.0,84,0.00,,---,0.00,VWS V14.01,2013-08-05 04:30:00,
2013-08-04 23:39:00,71.3,66.0,30.06,South,172,2.0,8.0,84,0.00,,,0.00,weatherlink.com 1.10,2013-08-05 04:39:00,
2013-08-04 23:40:00,71.0,65.6,30.06,SSE,158,3.0,8.0,83,0.00,,---,0.00,VWS V14.01,2013-08-05 04:40:00,
2013-08-04 23:50:00,71.0,66.3,30.05,SSE,158,4.0,8.0,85,0.00,,---,0.00,VWS V14.01,2013-08-05 04:50:00,
2013-08-04 23:53:00,70.5,66.0,30.05,SE,126,6.0,8.0,85,0.00,,,0.00,weatherlink.com 1.10,2013-08-05 04:53:00,